Time;durP1;ratioP1;P1;durP2;ratioP2;P2;SDS_P1;SDS_P2;PMS_P1;PMS_P2;Temp;Humidity;BMP_temperature;BMP_pressure;BME280_temperature;BME280_humidity;BME280_pressure;Samples;Min_cycle;Max_cycle;Signal;HPM_P1;HPM_P2
2022/12/04 00:00:41;;;;;;;;;;;;;;;4.30;100.00;97684.59;5071085;28;19988;-60
2022/12/04 00:03:09;;;;;;;;;;;;;;;4.32;100.00;97690.50;5071082;28;19924;-61
2022/12/04 00:05:35;;;;;;;;;;;;;;;4.28;100.00;97696.44;5053027;28;20020;-62
2022/12/04 00:08:02;;;;;;;;;;;;;;;4.29;100.00;97683.00;5071098;28;19976;-61
2022/12/04 00:10:28;;;;;;;;;;;;;;;4.29;100.00;97675.09;5071369;28;19924;-61
2022/12/04 00:12:55;;;;;;;;;;;;;;;4.30;100.00;97676.66;5070898;28;19925;-60
2022/12/04 00:15:21;;;;;;;;;;;;;;;4.30;100.00;97673.25;5070934;28;19992;-60
2022/12/04 00:17:48;;;;;;;;;;;;;;;4.22;100.00;97669.09;5071059;28;20325;-60
2022/12/04 00:20:15;;;;;;;;;;;;;;;4.19;100.00;97669.53;5071018;28;19932;-61
2022/12/04 00:22:42;;;;;;;;;;;;;;;4.17;100.00;97668.16;5066422;28;19936;-60
2022/12/04 00:25:08;;;;;;;;;;;;;;;4.02;100.00;97668.63;5070997;28;20024;-60
2022/12/04 00:27:35;;;;;;;;;;;;;;;3.99;100.00;97662.97;5070703;28;19995;-61
2022/12/04 00:30:01;;;;;;;;;;;;;;;3.96;100.00;97672.13;5070838;28;19960;-61
2022/12/04 00:32:27;;;;;;;;;;;;;;;3.96;100.00;97664.22;5070877;28;19980;-60
2022/12/04 00:34:54;;;;;;;;;;;;;;;3.88;100.00;97659.25;5070909;28;19984;-61
2022/12/04 00:37:21;;;;;;;;;;;;;;;3.77;100.00;97665.34;5071122;28;19964;-60
2022/12/04 00:39:48;;;;;;;;;;;;;;;3.75;100.00;97665.53;5070780;28;19925;-61
2022/12/04 00:42:14;;;;;;;;;;;;;;;3.84;100.00;97663.38;5071007;28;19989;-61
2022/12/04 00:44:40;;;;;;;;;;;;;;;3.86;100.00;97666.63;5070736;28;19925;-61
2022/12/04 00:47:07;;;;;;;;;;;;;;;3.92;100.00;97667.53;5070604;28;19963;-60
2022/12/04 00:49:33;;;;;;;;;;;;;;;3.97;100.00;97679.03;5070791;28;19984;-60
2022/12/04 00:51:59;;;;;;;;;;;;;;;4.02;100.00;97684.47;5062266;28;19933;-60
2022/12/04 00:54:27;;;;;;;;;;;;;;;4.08;100.00;97678.28;5066241;28;19988;-61
2022/12/04 00:56:53;;;;;;;;;;;;;;;4.11;100.00;97687.59;5069696;28;19928;-61
2022/12/04 00:59:20;;;;;;;;;;;;;;;4.11;100.00;97683.09;5070205;28;20000;-62
2022/12/04 01:01:46;;;;;;;;;;;;;;;4.14;100.00;97668.63;5069992;28;19984;-62
2022/12/04 01:04:12;;;;;;;;;;;;;;;4.17;100.00;97661.06;5070173;28;19992;-60
2022/12/04 01:06:39;;;;;;;;;;;;;;;4.18;100.00;97661.84;5070094;28;20032;-60
2022/12/04 01:09:05;;;;;;;;;;;;;;;4.18;100.00;97649.44;5070407;28;19925;-61
2022/12/04 01:11:33;;;;;;;;;;;;;;;4.19;100.00;97648.41;5070267;28;19924;-61
2022/12/04 01:14:00;;;;;;;;;;;;;;;4.20;100.00;97647.38;5061630;28;19925;-61
2022/12/04 01:16:27;;;;;;;;;;;;;;;4.20;100.00;97643.94;5070203;28;19924;-60
2022/12/04 01:18:54;;;;;;;;;;;;;;;4.21;100.00;97641.03;5069890;28;19935;-60
2022/12/04 01:21:20;;;;;;;;;;;;;;;4.17;100.00;97636.47;5069909;28;19970;-60
2022/12/04 01:23:47;;;;;;;;;;;;;;;4.20;100.00;97639.44;5065405;28;19996;-60
2022/12/04 01:26:13;;;;;;;;;;;;;;;4.16;100.00;97645.41;5069744;28;19970;-60
2022/12/04 01:28:41;;;;;;;;;;;;;;;4.14;100.00;97644.84;5069786;28;19992;-60
2022/12/04 01:31:08;;;;;;;;;;;;;;;4.15;100.00;97652.53;5069865;28;19987;-61
2022/12/04 01:33:35;;;;;;;;;;;;;;;4.14;100.00;97645.66;5069662;28;19935;-60
2022/12/04 01:36:03;;;;;;;;;;;;;;;4.10;100.00;97657.69;5069508;28;19924;-60
2022/12/04 01:38:30;;;;;;;;;;;;;;;4.15;100.00;97638.50;5069702;28;19988;-60
2022/12/04 01:40:57;;;;;;;;;;;;;;;4.17;100.00;97647.03;5069296;28;20043;-62
2022/12/04 01:43:24;;;;;;;;;;;;;;;4.17;100.00;97645.19;5069524;28;19952;-61
2022/12/04 01:45:52;;;;;;;;;;;;;;;4.16;100.00;97645.41;5069358;28;20038;-60
2022/12/04 01:48:21;;;;;;;;;;;;;;;4.15;100.00;97641.97;5069442;28;19960;-60
2022/12/04 01:50:49;;;;;;;;;;;;;;;4.15;100.00;97641.97;5069278;28;19956;-60
2022/12/04 01:53:16;;;;;;;;;;;;;;;4.14;100.00;97640.38;5065189;28;20038;-61
2022/12/04 01:55:43;;;;;;;;;;;;;;;4.15;100.00;97635.84;5069431;28;19929;-60
2022/12/04 01:58:10;;;;;;;;;;;;;;;4.12;100.00;97634.47;5069420;28;19935;-60
2022/12/04 02:00:36;;;;;;;;;;;;;;;4.13;100.00;97633.47;5069163;28;19992;-60
2022/12/04 02:03:04;;;;;;;;;;;;;;;4.14;100.00;97639.56;5069162;28;19921;-61
2022/12/04 02:05:30;;;;;;;;;;;;;;;4.08;100.00;97651.84;5069203;28;19984;-61
2022/12/04 02:07:58;;;;;;;;;;;;;;;4.08;100.00;97636.00;5069075;28;20028;-61
2022/12/04 02:10:31;;;;;;;;;;;;;;;4.11;100.00;97640.00;5068295;28;19925;-59
2022/12/04 02:13:02;;;;;;;;;;;;;;;4.07;100.00;97644.94;5068906;28;19960;-61
2022/12/04 02:15:33;;;;;;;;;;;;;;;4.11;100.00;97640.81;5069235;28;19943;-61
2022/12/04 02:18:07;;;;;;;;;;;;;;;4.08;100.00;97643.91;5060976;28;19992;-61
2022/12/04 02:20:38;;;;;;;;;;;;;;;4.06;100.00;97651.25;5069200;28;19975;-60
2022/12/04 02:23:23;;;;;;;;;;;;;;;4.03;100.00;97664.91;5057145;28;20220;-60
2022/12/04 02:25:54;;;;;;;;;;;;;;;4.03;100.00;97662.28;5037922;28;20223;-61
2022/12/04 02:28:23;;;;;;;;;;;;;;;4.03;100.00;97651.72;5069097;28;19976;-61
2022/12/04 02:30:51;;;;;;;;;;;;;;;4.05;100.00;97647.03;5068910;28;19971;-61
2022/12/04 02:33:20;;;;;;;;;;;;;;;4.07;100.00;97639.66;5069124;28;19996;-61
2022/12/04 02:35:48;;;;;;;;;;;;;;;4.07;100.00;97623.81;5069005;28;19956;-60
2022/12/04 02:38:18;;;;;;;;;;;;;;;4.04;100.00;97623.44;5069585;28;19960;-61
2022/12/04 02:40:50;;;;;;;;;;;;;;;4.02;100.00;97621.06;5068819;28;20008;-60
2022/12/04 02:43:18;;;;;;;;;;;;;;;3.88;100.00;97605.63;5068888;28;20012;-61
2022/12/04 02:45:48;;;;;;;;;;;;;;;3.55;100.00;97614.88;5068520;28;19928;-60
2022/12/04 02:48:16;;;;;;;;;;;;;;;3.45;100.00;97611.97;5068557;28;20023;-60
2022/12/04 02:50:43;;;;;;;;;;;;;;;3.53;100.00;97606.34;5068475;28;19955;-59
2022/12/04 02:53:12;;;;;;;;;;;;;;;3.49;100.00;97602.56;5063932;28;19931;-59
2022/12/04 02:55:41;;;;;;;;;;;;;;;3.46;100.00;97594.28;5068279;28;20059;-60
2022/12/04 02:58:10;;;;;;;;;;;;;;;3.28;100.00;97595.94;5068413;28;19996;-60
2022/12/04 03:00:38;;;;;;;;;;;;;;;3.21;100.00;97591.78;5068193;28;19993;-60
2022/12/04 03:03:08;;;;;;;;;;;;;;;2.96;100.00;97599.03;5068544;28;19924;-60
2022/12/04 03:05:39;;;;;;;;;;;;;;;2.94;100.00;97588.69;5068490;28;19956;-60
2022/12/04 03:08:08;;;;;;;;;;;;;;;2.98;100.00;97592.50;5068489;28;20000;-61
2022/12/04 03:10:36;;;;;;;;;;;;;;;2.78;100.00;97581.41;5068430;28;19921;-60
2022/12/04 03:13:06;;;;;;;;;;;;;;;2.73;100.00;97578.59;5068503;28;20091;-60
2022/12/04 03:15:35;;;;;;;;;;;;;;;2.57;100.00;97580.00;5068558;28;19925;-60
2022/12/04 03:18:03;;;;;;;;;;;;;;;2.60;100.00;97573.50;5060846;28;19952;-60
2022/12/04 03:20:31;;;;;;;;;;;;;;;2.76;100.00;97579.97;5069894;28;19925;-60
2022/12/04 03:23:00;;;;;;;;;;;;;;;2.92;100.00;97585.47;5067803;28;19925;-60
2022/12/04 03:25:32;;;;;;;;;;;;;;;3.07;100.00;97580.59;5072467;28;19991;-60
2022/12/04 03:28:01;;;;;;;;;;;;;;;2.86;100.00;97578.44;5064073;28;19988;-60
2022/12/04 03:30:30;;;;;;;;;;;;;;;2.80;100.00;97574.06;5072222;28;20008;-60
2022/12/04 03:33:00;;;;;;;;;;;;;;;2.84;100.00;97583.16;5072141;28;19932;-60
2022/12/04 03:35:29;;;;;;;;;;;;;;;2.70;100.00;97573.75;5072464;28;20003;-59
2022/12/04 03:38:00;;;;;;;;;;;;;;;2.62;100.00;97571.44;5072216;28;19968;-61
2022/12/04 03:40:30;;;;;;;;;;;;;;;2.50;100.00;97573.19;5071990;28;19992;-61
2022/12/04 03:42:59;;;;;;;;;;;;;;;2.40;100.00;97562.34;5054249;28;19931;-60
2022/12/04 03:45:27;;;;;;;;;;;;;;;2.50;100.00;97558.19;5071971;28;19925;-60
2022/12/04 03:47:56;;;;;;;;;;;;;;;2.35;100.00;97554.31;5072093;28;20016;-60
2022/12/04 03:50:28;;;;;;;;;;;;;;;2.43;100.00;97548.75;5072300;28;20010;-61
2022/12/04 03:52:59;;;;;;;;;;;;;;;2.54;100.00;97548.81;5067394;28;19972;-60
2022/12/04 03:55:30;;;;;;;;;;;;;;;2.47;100.00;97540.19;5071854;28;19940;-60
2022/12/04 03:57:58;;;;;;;;;;;;;;;2.50;100.00;97546.84;5071701;28;20015;-60
2022/12/04 04:00:25;;;;;;;;;;;;;;;2.48;100.00;97543.59;5071610;28;19980;-59
2022/12/04 04:02:54;;;;;;;;;;;;;;;2.56;100.00;97538.06;5071546;28;19988;-60
2022/12/04 04:05:22;;;;;;;;;;;;;;;2.49;100.00;97534.69;5071633;28;20012;-60
2022/12/04 04:07:50;;;;;;;;;;;;;;;2.47;100.00;97542.81;5071478;28;19935;-59
2022/12/04 04:10:18;;;;;;;;;;;;;;;2.52;100.00;97544.78;5053616;28;19925;-60
2022/12/04 04:24:12;;;;;;;;;;;;;;;2.66;100.00;97546.25;5071355;28;20007;-59
2022/12/04 04:26:37;;;;;;;;;;;;;;;2.60;100.00;97555.03;5071344;28;19964;-60
2022/12/04 04:29:05;;;;;;;;;;;;;;;2.59;100.00;97559.50;5053141;28;19984;-60
2022/12/04 04:31:35;;;;;;;;;;;;;;;2.65;100.00;97556.00;5070673;28;19925;-61
2022/12/04 04:34:05;;;;;;;;;;;;;;;2.73;100.00;97568.06;5078324;28;19921;-60
2022/12/04 04:36:35;;;;;;;;;;;;;;;2.63;100.00;97565.16;5070941;28;19964;-60
2022/12/04 04:39:07;;;;;;;;;;;;;;;2.69;100.00;97569.53;5062900;28;19993;-60
2022/12/04 04:41:40;;;;;;;;;;;;;;;2.78;100.00;97572.66;5070809;28;19928;-60
2022/12/04 04:44:12;;;;;;;;;;;;;;;2.87;100.00;97572.16;5063488;28;19968;-60
2022/12/04 04:46:40;;;;;;;;;;;;;;;2.82;100.00;97569.34;5070687;28;19982;-60
2022/12/04 04:49:08;;;;;;;;;;;;;;;2.92;100.00;97574.91;5070665;28;19935;-60
2022/12/04 04:51:35;;;;;;;;;;;;;;;2.90;100.00;97578.81;5070751;28;19925;-60
2022/12/04 04:54:04;;;;;;;;;;;;;;;2.81;100.00;97580.13;5065998;28;19988;-61
2022/12/04 04:56:30;;;;;;;;;;;;;;;2.72;100.00;97572.50;5070375;28;19925;-60
2022/12/04 04:58:57;;;;;;;;;;;;;;;2.69;100.00;97562.41;5070567;28;19988;-60
2022/12/04 05:01:27;;;;;;;;;;;;;;;2.74;100.00;97564.41;5070480;28;19992;-61
2022/12/04 05:03:53;;;;;;;;;;;;;;;2.73;100.00;97562.78;5070305;28;19929;-60
2022/12/04 05:06:19;;;;;;;;;;;;;;;2.79;100.00;97569.00;5070658;28;19925;-59
2022/12/04 05:08:48;;;;;;;;;;;;;;;2.65;100.00;97561.25;5070336;28;20108;-60
2022/12/04 05:11:15;;;;;;;;;;;;;;;2.60;100.00;97568.22;5070259;28;19968;-60
2022/12/04 05:13:42;;;;;;;;;;;;;;;2.65;100.00;97568.34;5070270;28;19959;-60
2022/12/04 05:16:11;;;;;;;;;;;;;;;2.60;100.00;97565.59;5070338;28;19971;-60
2022/12/04 05:18:38;;;;;;;;;;;;;;;2.64;100.00;97569.38;5069901;28;20003;-61
2022/12/04 05:21:05;;;;;;;;;;;;;;;2.65;100.00;97571.81;5070091;28;19988;-60
2022/12/04 05:23:31;;;;;;;;;;;;;;;2.78;100.00;97564.75;5068830;28;19948;-60
2022/12/04 05:26:00;;;;;;;;;;;;;;;2.79;100.00;97572.44;5069507;28;19975;-60
2022/12/04 05:28:27;;;;;;;;;;;;;;;2.64;100.00;97572.00;5069723;28;19988;-60
2022/12/04 05:30:54;;;;;;;;;;;;;;;2.51;100.00;97575.59;5069791;28;19939;-60
2022/12/04 05:33:21;;;;;;;;;;;;;;;2.63;100.00;97578.31;5070031;28;19967;-61
2022/12/04 05:35:56;;;;;;;;;;;;;;;2.55;100.00;97575.97;5070116;28;19952;-60
2022/12/04 05:38:23;;;;;;;;;;;;;;;2.61;100.00;97575.09;5085423;28;19920;-60
2022/12/04 05:40:49;;;;;;;;;;;;;;;2.54;100.00;97574.34;5069914;28;19924;-60
2022/12/04 05:43:15;;;;;;;;;;;;;;;2.61;100.00;97573.25;5069676;28;20363;-60
2022/12/04 05:45:42;;;;;;;;;;;;;;;2.72;100.00;97553.28;5069158;28;20194;-60
2022/12/04 05:48:08;;;;;;;;;;;;;;;2.67;100.00;97561.03;5069704;28;19994;-60
2022/12/04 05:50:34;;;;;;;;;;;;;;;2.73;100.00;97573.31;5069743;28;19924;-60
2022/12/04 05:53:02;;;;;;;;;;;;;;;2.83;100.00;97578.88;5065280;28;19925;-60
2022/12/04 05:55:28;;;;;;;;;;;;;;;2.92;100.00;97572.28;5070167;28;19970;-60
2022/12/04 05:57:55;;;;;;;;;;;;;;;2.75;100.00;97573.94;5069549;28;20020;-60
2022/12/04 06:00:21;;;;;;;;;;;;;;;2.68;100.00;97574.00;5069474;28;19959;-60
2022/12/04 06:02:47;;;;;;;;;;;;;;;2.85;100.00;97578.69;5051902;28;20008;-60
2022/12/04 06:05:13;;;;;;;;;;;;;;;2.78;100.00;97568.22;5069665;28;19980;-59
2022/12/04 06:07:40;;;;;;;;;;;;;;;2.71;100.00;97576.19;5069506;28;19971;-60
2022/12/04 06:10:08;;;;;;;;;;;;;;;2.83;100.00;97581.53;5069499;28;19987;-60
2022/12/04 06:12:34;;;;;;;;;;;;;;;2.74;100.00;97580.22;5069379;28;19925;-61
2022/12/04 06:15:00;;;;;;;;;;;;;;;2.67;100.00;97582.13;5060537;28;19925;-61
2022/12/04 06:17:27;;;;;;;;;;;;;;;2.58;100.00;97576.34;5068926;28;19931;-60
2022/12/04 06:19:54;;;;;;;;;;;;;;;2.56;100.00;97582.88;5068741;28;19989;-60
2022/12/04 06:22:20;;;;;;;;;;;;;;;2.61;100.00;97588.28;5066014;28;20248;-60
2022/12/04 06:24:47;;;;;;;;;;;;;;;2.72;100.00;97587.56;5067011;28;19956;-60
2022/12/04 06:27:15;;;;;;;;;;;;;;;2.58;100.00;97591.34;5068684;28;19925;-60
2022/12/04 06:29:41;;;;;;;;;;;;;;;2.56;100.00;97582.88;5068471;28;20007;-61
2022/12/04 06:32:07;;;;;;;;;;;;;;;2.62;100.00;97592.53;5068413;28;19955;-60
2022/12/04 06:34:34;;;;;;;;;;;;;;;2.55;100.00;97587.31;5068752;28;19956;-61
2022/12/04 06:37:00;;;;;;;;;;;;;;;2.62;100.00;97589.88;5060256;28;19924;-60
2022/12/04 06:39:27;;;;;;;;;;;;;;;2.63;100.00;97588.88;5068448;28;20030;-60
2022/12/04 06:41:53;;;;;;;;;;;;;;;2.62;100.00;97581.97;5068336;28;19963;-60
2022/12/04 06:44:21;;;;;;;;;;;;;;;2.48;100.00;97588.41;5068540;28;19925;-60
2022/12/04 06:46:48;;;;;;;;;;;;;;;2.58;100.00;97592.16;5068334;28;19925;-60
2022/12/04 06:49:15;;;;;;;;;;;;;;;2.60;100.00;97595.38;5068644;28;19935;-60
2022/12/04 06:51:41;;;;;;;;;;;;;;;2.60;100.00;97584.81;5068412;28;19999;-59
2022/12/04 06:54:09;;;;;;;;;;;;;;;2.54;100.00;97579.63;5064128;28;19931;-59
2022/12/04 06:56:35;;;;;;;;;;;;;;;2.49;100.00;97571.59;5071741;28;19939;-59
2022/12/04 06:59:02;;;;;;;;;;;;;;;2.44;100.00;97568.81;5072862;28;19991;-60
2022/12/04 07:01:31;;;;;;;;;;;;;;;2.41;100.00;97567.44;5072678;28;19996;-60
2022/12/04 07:03:58;;;;;;;;;;;;;;;2.37;100.00;97562.78;5072554;28;19928;-60
2022/12/04 07:06:25;;;;;;;;;;;;;;;2.34;100.00;97569.31;5072325;28;19956;-60
2022/12/04 07:08:52;;;;;;;;;;;;;;;2.38;100.00;97565.22;5072308;28;19980;-60
2022/12/04 07:11:20;;;;;;;;;;;;;;;2.32;100.00;97560.03;5072618;28;19929;-60
2022/12/04 07:13:47;;;;;;;;;;;;;;;2.39;100.00;97563.38;5054684;28;19937;-59
2022/12/04 07:16:15;;;;;;;;;;;;;;;2.32;100.00;97555.53;5072827;28;19928;-60
2022/12/04 07:18:42;;;;;;;;;;;;;;;2.30;100.00;97546.25;5072699;28;19959;-60
2022/12/04 07:21:09;;;;;;;;;;;;;;;2.33;100.00;97551.06;5072482;28;19956;-59
2022/12/04 07:23:36;;;;;;;;;;;;;;;2.38;100.00;97553.88;5068139;28;19976;-61
2022/12/04 07:26:06;;;;;;;;;;;;;;;2.45;100.00;97549.31;5072410;28;19927;-61
2022/12/04 07:28:32;;;;;;;;;;;;;;;2.48;100.00;97546.25;5072538;28;19921;-59
2022/12/04 07:30:58;;;;;;;;;;;;;;;2.51;100.00;97553.69;5072409;28;19994;-60
2022/12/04 07:33:25;;;;;;;;;;;;;;;2.60;100.00;97555.81;5072322;28;19931;-60
2022/12/04 07:35:56;;;;;;;;;;;;;;;2.65;100.00;97561.25;5072233;28;19968;-61
2022/12/04 07:38:22;;;;;;;;;;;;;;;2.70;100.00;97557.94;5072522;28;19921;-61
2022/12/04 07:40:48;;;;;;;;;;;;;;;2.70;100.00;97568.50;5072114;28;19984;-61
2022/12/04 07:43:15;;;;;;;;;;;;;;;2.75;100.00;97566.00;5072307;28;19960;-61
2022/12/04 07:45:41;;;;;;;;;;;;;;;2.83;100.00;97570.97;5072051;28;19928;-61
2022/12/04 07:48:07;;;;;;;;;;;;;;;2.78;100.00;97560.31;5071988;28;19987;-60
2022/12/04 07:50:34;;;;;;;;;;;;;;;2.76;100.00;97554.41;5072053;28;19967;-60
2022/12/04 07:53:01;;;;;;;;;;;;;;;2.72;100.00;97551.41;5058902;28;19939;-60
2022/12/04 07:55:28;;;;;;;;;;;;;;;2.78;100.00;97544.47;5071711;28;19985;-61
2022/12/04 07:57:54;;;;;;;;;;;;;;;2.73;100.00;97550.41;5071297;28;20371;-61
2022/12/04 08:00:20;;;;;;;;;;;;;;;2.77;100.00;97550.78;5071549;28;20016;-60
2022/12/04 08:02:46;;;;;;;;;;;;;;;2.83;100.00;97555.16;5071240;28;19992;-61
2022/12/04 08:05:13;;;;;;;;;;;;;;;2.81;100.00;97569.59;5071499;28;20008;-60
2022/12/04 08:07:39;;;;;;;;;;;;;;;2.86;100.00;97575.81;5070226;28;19924;-61
2022/12/04 08:10:07;;;;;;;;;;;;;;;2.92;100.00;97577.56;5071029;28;19956;-60
2022/12/04 08:12:34;;;;;;;;;;;;;;;2.98;100.00;97575.84;5071080;28;20035;-60
2022/12/04 08:15:00;;;;;;;;;;;;;;;3.06;100.00;97579.00;5062993;28;19920;-61
2022/12/04 08:17:27;;;;;;;;;;;;;;;3.13;100.00;97587.63;5071011;28;20153;-60
2022/12/04 08:19:53;;;;;;;;;;;;;;;3.15;100.00;97582.94;5070739;28;19993;-61
2022/12/04 08:22:20;;;;;;;;;;;;;;;3.13;100.00;97579.72;5068299;28;20158;-60
2022/12/04 08:24:46;;;;;;;;;;;;;;;3.19;100.00;97578.81;5068834;28;19993;-60
2022/12/04 08:27:14;;;;;;;;;;;;;;;3.19;100.00;97568.25;5070740;28;19921;-60
2022/12/04 08:29:40;;;;;;;;;;;;;;;3.25;100.00;97570.00;5070730;28;19992;-60
2022/12/04 08:32:06;;;;;;;;;;;;;;;3.24;100.00;97568.41;5070764;28;19988;-60
2022/12/04 08:34:33;;;;;;;;;;;;;;;3.26;100.00;97557.63;5070775;28;19933;-62
2022/12/04 08:36:59;;;;;;;;;;;;;;;3.35;100.00;97573.94;5070700;28;19932;-60
2022/12/04 08:39:26;;;;;;;;;;;;;;;3.30;100.00;97568.53;5070623;28;19988;-60
2022/12/04 08:41:52;;;;;;;;;;;;;;;3.41;100.00;97578.31;5070499;28;19964;-60
2022/12/04 08:44:20;;;;;;;;;;;;;;;3.45;100.00;97587.38;5070833;28;19988;-60
2022/12/04 08:46:46;;;;;;;;;;;;;;;3.42;100.00;97577.28;5070404;28;19924;-60
2022/12/04 08:49:12;;;;;;;;;;;;;;;3.45;100.00;97576.84;5070455;28;19974;-60
2022/12/04 08:51:39;;;;;;;;;;;;;;;3.44;100.00;97575.22;5070593;28;19931;-60
2022/12/04 08:54:07;;;;;;;;;;;;;;;3.52;100.00;97567.00;5066168;28;20039;-60
2022/12/04 08:56:34;;;;;;;;;;;;;;;3.50;100.00;97558.47;5070365;28;19925;-60
2022/12/04 08:59:01;;;;;;;;;;;;;;;3.51;100.00;97545.06;5061971;28;19956;-60
2022/12/04 09:01:29;;;;;;;;;;;;;;;3.61;100.00;97549.78;5070440;28;19987;-60
2022/12/04 09:03:55;;;;;;;;;;;;;;;3.62;100.00;97556.69;5070575;28;19984;-61
2022/12/04 09:06:21;;;;;;;;;;;;;;;3.65;100.00;97557.00;5070692;28;20125;-59
2022/12/04 09:08:48;;;;;;;;;;;;;;;3.62;100.00;97562.75;5070549;28;20016;-60
2022/12/04 09:11:15;;;;;;;;;;;;;;;3.72;100.00;97570.13;5070741;28;19925;-60
2022/12/04 09:13:42;;;;;;;;;;;;;;;3.74;100.00;97581.28;5070666;28;19953;-60
2022/12/04 09:16:09;;;;;;;;;;;;;;;3.69;100.00;97566.09;5070311;28;19924;-61
2022/12/04 09:18:37;;;;;;;;;;;;;;;3.85;100.00;97567.25;5070203;28;19935;-60
2022/12/04 09:21:05;;;;;;;;;;;;;;;3.93;100.00;97569.56;5070361;28;19956;-61
2022/12/04 09:23:33;;;;;;;;;;;;;;;3.98;100.00;97572.34;5065558;28;19990;-61
2022/12/04 09:25:59;;;;;;;;;;;;;;;3.95;100.00;97574.63;5070053;28;20012;-60
2022/12/04 09:28:25;;;;;;;;;;;;;;;4.04;100.00;97581.19;5070108;28;19980;-60
2022/12/04 09:30:56;;;;;;;;;;;;;;;4.05;100.00;97585.44;5069918;28;20135;-60
2022/12/04 09:33:22;;;;;;;;;;;;;;;4.08;100.00;97564.66;5070057;28;19984;-60
2022/12/04 09:35:50;;;;;;;;;;;;;;;4.14;100.00;97562.91;5069926;28;19980;-61
2022/12/04 09:38:16;;;;;;;;;;;;;;;4.20;100.00;97559.34;5070236;28;19928;-60
2022/12/04 09:40:47;;;;;;;;;;;;;;;4.31;100.00;97554.06;5069966;28;19944;-60
2022/12/04 09:43:21;;;;;;;;;;;;;;;4.32;100.00;97555.66;5069864;28;19988;-61
2022/12/04 09:45:51;;;;;;;;;;;;;;;4.34;100.00;97543.00;5069947;28;19979;-60
2022/12/04 09:48:18;;;;;;;;;;;;;;;4.45;100.00;97551.16;5069552;28;19925;-61
2022/12/04 09:50:47;;;;;;;;;;;;;;;4.50;100.00;97552.06;5069569;28;20000;-60
2022/12/04 09:53:18;;;;;;;;;;;;;;;4.43;100.00;97546.09;5065043;28;19924;-61
2022/12/04 09:55:54;;;;;;;;;;;;;;;4.54;100.00;97537.34;5069573;28;20399;-60
2022/12/04 09:58:23;;;;;;;;;;;;;;;4.60;100.00;97538.25;5069796;28;19956;-60
2022/12/04 10:00:51;;;;;;;;;;;;;;;4.57;100.00;97536.09;5069173;28;19967;-60
2022/12/04 10:03:18;;;;;;;;;;;;;;;4.50;100.00;97523.00;5069301;28;19960;-60
2022/12/04 10:05:54;;;;;;;;;;;;;;;4.54;100.00;97523.34;5069124;28;19939;-61
2022/12/04 10:08:23;;;;;;;;;;;;;;;4.66;100.00;97524.91;5069139;28;19935;-61
2022/12/04 10:10:56;;;;;;;;;;;;;;;4.74;100.00;97526.38;5069310;28;19925;-61
2022/12/04 10:13:33;;;;;;;;;;;;;;;4.67;100.00;97523.06;5069310;28;19988;-60
2022/12/04 10:16:06;;;;;;;;;;;;;;;4.78;100.00;97511.63;5069112;28;20011;-61
2022/12/04 10:18:40;;;;;;;;;;;;;;;4.80;100.00;97509.56;5069198;28;19925;-60
2022/12/04 10:21:28;;;;;;;;;;;;;;;4.69;100.00;97503.28;5061566;28;19975;-61
2022/12/04 10:24:01;;;;;;;;;;;;;;;4.97;100.00;97488.44;5059043;28;20129;-60
2022/12/04 10:26:29;;;;;;;;;;;;;;;4.92;100.00;97486.50;5068832;28;19967;-61
2022/12/04 10:28:59;;;;;;;;;;;;;;;4.87;100.00;97486.41;5068683;28;19929;-60
2022/12/04 10:31:26;;;;;;;;;;;;;;;4.98;100.00;97493.50;5068261;28;19982;-62
2022/12/04 10:33:55;;;;;;;;;;;;;;;5.05;100.00;97482.75;5068614;28;19931;-60
2022/12/04 10:36:24;;;;;;;;;;;;;;;5.03;100.00;97476.91;5068822;28;19991;-62
2022/12/04 10:38:52;;;;;;;;;;;;;;;5.04;100.00;97476.69;5068966;28;19999;-60
2022/12/04 10:41:21;;;;;;;;;;;;;;;5.01;100.00;97471.88;5068872;28;19956;-61
2022/12/04 10:43:49;;;;;;;;;;;;;;;5.00;100.00;97457.03;5050849;28;19988;-61
2022/12/04 10:46:18;;;;;;;;;;;;;;;4.94;100.00;97457.16;5068693;28;19959;-61
2022/12/04 10:48:46;;;;;;;;;;;;;;;4.98;100.00;97443.25;5068736;28;19940;-61
2022/12/04 10:51:15;;;;;;;;;;;;;;;4.96;100.00;97440.00;5068460;28;20011;-61
2022/12/04 10:53:42;;;;;;;;;;;;;;;4.92;100.00;97451.31;5063933;28;19935;-61
2022/12/04 10:56:09;;;;;;;;;;;;;;;4.88;100.00;97446.50;5068379;28;20015;-60
2022/12/04 10:58:37;;;;;;;;;;;;;;;4.92;100.00;97451.31;5068446;28;19925;-61
2022/12/04 11:01:05;;;;;;;;;;;;;;;4.89;100.00;97448.09;5068629;28;19980;-62
2022/12/04 11:03:31;;;;;;;;;;;;;;;4.99;100.00;97457.25;5068586;28;19956;-61
2022/12/04 11:05:59;;;;;;;;;;;;;;;4.95;100.00;97448.19;5068683;28;19960;-61
2022/12/04 11:08:28;;;;;;;;;;;;;;;5.07;100.00;97444.44;5068753;28;19992;-61
2022/12/04 11:10:59;;;;;;;;;;;;;;;5.16;100.00;97436.91;5068280;28;19924;-60
2022/12/04 11:13:26;;;;;;;;;;;;;;;5.19;100.00;97444.38;5068365;28;19997;-59
2022/12/04 11:15:55;;;;;;;;;;;;;;;5.22;100.00;97442.06;5068396;28;20028;-60
2022/12/04 11:18:23;;;;;;;;;;;;;;;5.21;100.00;97436.97;5068644;28;19924;-60
2022/12/04 11:20:50;;;;;;;;;;;;;;;5.02;100.00;97427.66;5068433;28;20012;-60
2022/12/04 11:23:17;;;;;;;;;;;;;;;5.10;100.00;97425.44;5063686;28;19964;-60
2022/12/04 11:25:45;;;;;;;;;;;;;;;5.23;100.00;97419.03;5068036;28;20407;-60
2022/12/04 11:28:15;;;;;;;;;;;;;;;5.21;100.00;97421.91;5068135;28;20597;-61
2022/12/04 11:30:46;;;;;;;;;;;;;;;5.20;100.00;97412.34;5068141;28;19988;-61
2022/12/04 11:33:17;;;;;;;;;;;;;;;5.26;100.00;97407.97;5067961;28;19956;-60
2022/12/04 11:35:50;;;;;;;;;;;;;;;5.21;100.00;97400.72;5068601;28;19992;-61
2022/12/04 11:38:17;;;;;;;;;;;;;;;5.34;100.00;97391.66;5067903;28;19992;-61
2022/12/04 11:40:45;;;;;;;;;;;;;;;5.28;100.00;97390.78;5067979;28;20395;-61
2022/12/04 11:43:13;;;;;;;;;;;;;;;5.30;100.00;97391.34;5071607;28;20209;-62
2022/12/04 11:45:42;;;;;;;;;;;;;;;5.48;100.00;97398.22;5071760;28;19979;-62
2022/12/04 11:48:13;;;;;;;;;;;;;;;5.48;100.00;97394.78;5071288;28;19929;-60
2022/12/04 11:50:47;;;;;;;;;;;;;;;5.50;100.00;97398.00;5071426;28;20017;-60
2022/12/04 11:53:15;;;;;;;;;;;;;;;5.52;100.00;97395.88;5067100;28;20019;-61
2022/12/04 11:55:52;;;;;;;;;;;;;;;5.53;100.00;97400.97;5071623;28;19933;-61
2022/12/04 11:58:37;;;;;;;;;;;;;;;5.45;100.00;97396.88;5071787;28;19925;-60
2022/12/04 12:01:10;;;;;;;;;;;;;;;5.55;100.00;97392.75;5063430;28;19992;-62
2022/12/04 12:03:42;;;;;;;;;;;;;;;5.42;100.00;97388.59;5071312;28;19925;-60
2022/12/04 12:06:19;;;;;;;;;;;;;;;5.41;100.00;97398.41;5071403;28;19967;-61
2022/12/04 12:08:51;;;;;;;;;;;;;;;5.58;100.00;97398.38;5071018;28;19939;-61
2022/12/04 12:11:23;;;;;;;;;;;;;;;5.60;100.00;97404.22;5071075;28;20420;-60
2022/12/04 12:13:53;;;;;;;;;;;;;;;5.64;100.00;97396.59;5071115;28;19972;-61
2022/12/04 12:16:24;;;;;;;;;;;;;;;5.58;100.00;97405.50;5071225;28;19979;-60
2022/12/04 12:18:59;;;;;;;;;;;;;;;5.74;100.00;97402.84;5071056;28;19977;-61
2022/12/04 12:21:30;;;;;;;;;;;;;;;5.74;100.00;97402.84;5071099;28;20035;-61
2022/12/04 12:24:04;;;;;;;;;;;;;;;5.79;100.00;97394.94;5066291;28;19925;-61
2022/12/04 12:26:35;;;;;;;;;;;;;;;5.81;100.00;97406.13;5071104;28;19988;-60
2022/12/04 12:29:07;;;;;;;;;;;;;;;5.75;100.00;97404.47;5062805;28;19960;-62
2022/12/04 12:31:58;;;;;;;;;;;;;;;5.74;100.00;97408.13;5070919;28;19984;-60
2022/12/04 12:34:30;;;;;;;;;;;;;;;5.66;100.00;97402.47;5050578;28;20060;-61
2022/12/04 12:37:00;;;;;;;;;;;;;;;5.70;100.00;97395.63;5070689;28;19968;-61
2022/12/04 12:39:31;;;;;;;;;;;;;;;5.65;100.00;97387.59;5070931;28;20210;-61
2022/12/04 12:42:00;;;;;;;;;;;;;;;5.59;100.00;97391.22;5070734;28;19999;-61
2022/12/04 12:44:30;;;;;;;;;;;;;;;5.63;100.00;97381.75;5070827;28;20367;-60
2022/12/04 12:47:00;;;;;;;;;;;;;;;5.62;100.00;97388.91;5070564;28;19925;-61
2022/12/04 12:49:30;;;;;;;;;;;;;;;5.57;100.00;97378.22;5070901;28;20613;-61
2022/12/04 12:52:01;;;;;;;;;;;;;;;5.64;100.00;97376.22;5070496;28;19980;-62
2022/12/04 12:54:30;;;;;;;;;;;;;;;5.62;100.00;97372.19;5065411;28;19925;-61
2022/12/04 12:57:02;;;;;;;;;;;;;;;5.51;100.00;97373.91;5070688;28;19964;-61
2022/12/04 12:59:29;;;;;;;;;;;;;;;5.55;100.00;97369.72;5070906;28;19931;-61
2022/12/04 13:01:57;;;;;;;;;;;;;;;5.53;100.00;97357.78;5070464;28;19988;-61
2022/12/04 13:04:30;;;;;;;;;;;;;;;5.59;100.00;97357.59;5070597;28;20520;-60